Lennoxville, Quebec

3:37 AM EDT on August 18, 2017 (GMT -0400)
Pres du parc | | Change Station

Elev 732 ft 45.38 °N, 71.89 °W | Updated 28 seconds ago

Overcast
Overcast
57.3 °F
Feels Like 57.3 °F
N
0.0
Wind Variable Wind from SSW

Today
High -- | Low -- °F
--% Chance of Precip.
Yesterday
High -- | Low -- °F
Precip. -- in
Pressure 29.98 in
Visibility 9.0 miles
Clouds Mostly Cloudy 15000 ft
Mostly Cloudy 17000 ft
Overcast 19000 ft
Dew Point 54 °F
Humidity 88%
Rainfall 0.00 in
Snow Depth Not available.
5:52 AM 7:49 PM
Waning Crescent, 16% visible
METAR CYSC 180700Z AUTO 08005KT 9SM BKN150 BKN170 OVC190 13/11 A2997 RMK SLP151
Pressure 29.98 in
Visibility 9.0 miles
Clouds Mostly Cloudy 15000 ft
Mostly Cloudy 17000 ft
Overcast 19000 ft
Dew Point 54 °F
Humidity 88%
Rainfall 0.00 in
Snow Depth Not available.
5:52 AM 7:49 PM
Waning Crescent, 16% visible
METAR CYSC 180700Z AUTO 08005KT 9SM BKN150 BKN170 OVC190 13/11 A2997 RMK SLP151

Get Severe Weather Alerts

Thanks for signing up!

Be on the lookout for a verification email in your inbox.

You'll start receiving the daily forecast at 6 AM.

×

10-Day Weather Forecast

Almanac

Astronomy

Aug. 18, 2017 Rise Set
Actual Time
Civil Twilight
Nautical Twilight
Astronomical Twilight
Moon
Length of Visible Light
Length of Day
Tomorrow will be .
, % of the Moon is Illuminated

Today's Extremes

Country Highs Country Lows

Community

WunderPhotos

Category 6

Welcome to Category 6. This is the collective home for Weather Underground's featured writeups by Dr. Jeff Masters (right), Bob Henson (left), Chris Burt, and other regular contributors.

Nearby

Air Quality

  Air Quality AQ Index Pollutant
Not available.

Snow Depth

Station Depth Elevation

Earthquake Activity

City Distance Mag. Time & Date
Minimum magnitude displayed is 2.5.

Coastal Water Temperatures

Place Temperature

Stations

Nearby Weather Stations

Station Location Temp. Windchill Dew Point Humidity Wind Precip. Elev Updated Type
                   

Watches & Warnings

There are currently no watches in effect.